Farlen, Indiana
Current Conditions -  °F | °C
As of 5:55 AM on Thursday 23 Oct 2014 (Local Time) from KDCY Reporting Station
Haze Haze  
Wind Chill: 35°   Ceiling: 300
Heat Index: 35°   Visibility: 0.75mi
Dew Point: 35°   Wind: 0mph
Humidity: 100%   Direction: NA
Pressure: 30.25"   Gusts: NA
Location:  38.8205°N, 86.9659°W
Report Text: KDCY 231055Z AUTO 00000KT 3/4SM BR BKN003 02/02 A3025 RMK AO2 T00170017
Loading
Personal Weather Stations






























Interactive Weather Map
Tropical Storm Tracking
New forecast layout! Learn more

10-Day Weather Forecast

Advertisements
Track Severe Weather on mobile